sensor_id;sensor_type;location;lat;lon;timestamp;temperature;humidity
32428;DHT22;18882;50.952;4.366;2023-02-11T00:02:02;6.40;99.90
32428;DHT22;18882;50.952;4.366;2023-02-11T00:04:29;6.40;99.90
32428;DHT22;18882;50.952;4.366;2023-02-11T00:06:55;6.30;99.90
32428;DHT22;18882;50.952;4.366;2023-02-11T00:09:21;6.30;99.90
32428;DHT22;18882;50.952;4.366;2023-02-11T00:11:47;6.30;99.90
32428;DHT22;18882;50.952;4.366;2023-02-11T00:14:12;6.30;99.90
32428;DHT22;18882;50.952;4.366;2023-02-11T00:16:38;6.20;99.90
32428;DHT22;18882;50.952;4.366;2023-02-11T00:19:04;6.20;99.90
32428;DHT22;18882;50.952;4.366;2023-02-11T00:21:31;6.20;99.90
32428;DHT22;18882;50.952;4.366;2023-02-11T00:23:58;6.20;99.90
32428;DHT22;18882;50.952;4.366;2023-02-11T00:26:29;6.30;99.90
32428;DHT22;18882;50.952;4.366;2023-02-11T00:28:55;6.40;99.90
32428;DHT22;18882;50.952;4.366;2023-02-11T00:31:24;6.30;99.90
32428;DHT22;18882;50.952;4.366;2023-02-11T00:33:50;6.30;99.90
32428;DHT22;18882;50.952;4.366;2023-02-11T00:36:18;6.20;99.90
32428;DHT22;18882;50.952;4.366;2023-02-11T00:38:44;6.20;99.90
32428;DHT22;18882;50.952;4.366;2023-02-11T00:41:12;6.20;99.90
32428;DHT22;18882;50.952;4.366;2023-02-11T00:43:38;6.10;99.90
32428;DHT22;18882;50.952;4.366;2023-02-11T00:46:05;6.00;99.90
32428;DHT22;18882;50.952;4.366;2023-02-11T00:48:31;6.00;99.90
32428;DHT22;18882;50.952;4.366;2023-02-11T00:50:57;6.10;99.90
32428;DHT22;18882;50.952;4.366;2023-02-11T00:53:22;6.10;99.90
32428;DHT22;18882;50.952;4.366;2023-02-11T00:55:48;6.00;99.90
32428;DHT22;18882;50.952;4.366;2023-02-11T00:58:13;6.10;99.90
32428;DHT22;18882;50.952;4.366;2023-02-11T01:00:39;6.10;99.90
32428;DHT22;18882;50.952;4.366;2023-02-11T01:03:05;6.10;99.90
32428;DHT22;18882;50.952;4.366;2023-02-11T01:05:30;6.20;99.90
32428;DHT22;18882;50.952;4.366;2023-02-11T01:07:56;6.10;99.90
32428;DHT22;18882;50.952;4.366;2023-02-11T01:10:22;6.10;99.90
32428;DHT22;18882;50.952;4.366;2023-02-11T01:12:48;6.20;99.90
32428;DHT22;18882;50.952;4.366;2023-02-11T01:15:15;6.10;99.90
32428;DHT22;18882;50.952;4.366;2023-02-11T01:17:42;6.00;99.90
32428;DHT22;18882;50.952;4.366;2023-02-11T01:20:13;5.90;99.90
32428;DHT22;18882;50.952;4.366;2023-02-11T01:22:39;6.00;99.90
32428;DHT22;18882;50.952;4.366;2023-02-11T01:25:06;6.00;99.90
32428;DHT22;18882;50.952;4.366;2023-02-11T01:27:33;6.10;99.90
32428;DHT22;18882;50.952;4.366;2023-02-11T01:30:01;6.20;99.90
32428;DHT22;18882;50.952;4.366;2023-02-11T01:32:26;6.10;99.90
32428;DHT22;18882;50.952;4.366;2023-02-11T01:34:52;6.10;99.90
32428;DHT22;18882;50.952;4.366;2023-02-11T01:37:18;6.20;99.90
32428;DHT22;18882;50.952;4.366;2023-02-11T01:39:43;6.20;99.90
32428;DHT22;18882;50.952;4.366;2023-02-11T01:42:21;6.20;99.90
32428;DHT22;18882;50.952;4.366;2023-02-11T01:44:51;6.20;99.90
32428;DHT22;18882;50.952;4.366;2023-02-11T01:47:19;6.20;99.90
32428;DHT22;18882;50.952;4.366;2023-02-11T01:49:51;6.20;99.90
32428;DHT22;18882;50.952;4.366;2023-02-11T01:52:21;6.30;99.90
32428;DHT22;18882;50.952;4.366;2023-02-11T01:54:53;6.20;99.90
32428;DHT22;18882;50.952;4.366;2023-02-11T01:57:42;6.20;99.90
32428;DHT22;18882;50.952;4.366;2023-02-11T02:06:04;6.20;99.90
32428;DHT22;18882;50.952;4.366;2023-02-11T02:11:01;6.50;99.90
32428;DHT22;18882;50.952;4.366;2023-02-11T02:13:30;6.50;99.90
32428;DHT22;18882;50.952;4.366;2023-02-11T02:16:04;6.60;99.90
32428;DHT22;18882;50.952;4.366;2023-02-11T02:19:01;6.40;99.90
32428;DHT22;18882;50.952;4.366;2023-02-11T02:24:57;6.50;99.90
32428;DHT22;18882;50.952;4.366;2023-02-11T02:27:51;6.50;99.90
32428;DHT22;18882;50.952;4.366;2023-02-11T02:33:49;6.60;99.90
32428;DHT22;18882;50.952;4.366;2023-02-11T02:36:27;6.60;99.90
32428;DHT22;18882;50.952;4.366;2023-02-11T02:39:17;6.60;99.90
32428;DHT22;18882;50.952;4.366;2023-02-11T02:41:45;6.60;99.90
32428;DHT22;18882;50.952;4.366;2023-02-11T02:44:11;6.60;99.90
32428;DHT22;18882;50.952;4.366;2023-02-11T02:46:37;6.60;99.90
32428;DHT22;18882;50.952;4.366;2023-02-11T02:49:05;6.70;99.90
32428;DHT22;18882;50.952;4.366;2023-02-11T03:05:09;6.70;99.90
32428;DHT22;18882;50.952;4.366;2023-02-11T03:07:50;6.80;99.90
32428;DHT22;18882;50.952;4.366;2023-02-11T03:10:29;6.70;99.90
32428;DHT22;18882;50.952;4.366;2023-02-11T03:12:56;6.80;99.90
32428;DHT22;18882;50.952;4.366;2023-02-11T03:15:25;6.80;99.90
32428;DHT22;18882;50.952;4.366;2023-02-11T03:17:53;6.90;99.90
32428;DHT22;18882;50.952;4.366;2023-02-11T03:20:21;7.00;99.90
32428;DHT22;18882;50.952;4.366;2023-02-11T03:22:52;7.00;99.90
32428;DHT22;18882;50.952;4.366;2023-02-11T03:25:22;7.10;99.90
32428;DHT22;18882;50.952;4.366;2023-02-11T03:28:03;7.10;99.90
32428;DHT22;18882;50.952;4.366;2023-02-11T03:30:36;7.00;99.90
32428;DHT22;18882;50.952;4.366;2023-02-11T03:33:19;7.10;99.90
32428;DHT22;18882;50.952;4.366;2023-02-11T03:36:05;7.20;99.90
32428;DHT22;18882;50.952;4.366;2023-02-11T03:38:46;7.20;99.90
32428;DHT22;18882;50.952;4.366;2023-02-11T03:41:15;7.10;99.90
32428;DHT22;18882;50.952;4.366;2023-02-11T03:43:47;7.10;99.90
32428;DHT22;18882;50.952;4.366;2023-02-11T03:46:17;7.00;99.90
32428;DHT22;18882;50.952;4.366;2023-02-11T03:48:47;7.00;99.90
32428;DHT22;18882;50.952;4.366;2023-02-11T03:51:14;7.00;99.90
32428;DHT22;18882;50.952;4.366;2023-02-11T03:53:42;7.00;99.90
32428;DHT22;18882;50.952;4.366;2023-02-11T03:56:17;7.10;99.90
32428;DHT22;18882;50.952;4.366;2023-02-11T03:58:44;7.10;99.90
32428;DHT22;18882;50.952;4.366;2023-02-11T04:01:11;7.10;99.90
32428;DHT22;18882;50.952;4.366;2023-02-11T04:03:37;7.10;99.90
32428;DHT22;18882;50.952;4.366;2023-02-11T04:06:03;7.20;99.90
32428;DHT22;18882;50.952;4.366;2023-02-11T04:08:28;7.20;99.90
32428;DHT22;18882;50.952;4.366;2023-02-11T04:10:56;7.10;99.90
32428;DHT22;18882;50.952;4.366;2023-02-11T04:13:22;7.10;99.90
32428;DHT22;18882;50.952;4.366;2023-02-11T04:15:47;7.10;99.90
32428;DHT22;18882;50.952;4.366;2023-02-11T04:18:13;7.10;99.90
32428;DHT22;18882;50.952;4.366;2023-02-11T04:20:39;7.10;99.90
32428;DHT22;18882;50.952;4.366;2023-02-11T04:23:04;7.20;99.90
32428;DHT22;18882;50.952;4.366;2023-02-11T04:25:30;7.30;99.90
32428;DHT22;18882;50.952;4.366;2023-02-11T04:27:55;7.30;99.90
32428;DHT22;18882;50.952;4.366;2023-02-11T04:30:21;7.30;99.90
32428;DHT22;18882;50.952;4.366;2023-02-11T04:32:47;7.20;99.90
32428;DHT22;18882;50.952;4.366;2023-02-11T04:35:12;7.30;99.90
32428;DHT22;18882;50.952;4.366;2023-02-11T04:37:38;7.30;99.90
32428;DHT22;18882;50.952;4.366;2023-02-11T04:40:04;7.30;99.90
32428;DHT22;18882;50.952;4.366;2023-02-11T04:42:30;7.30;99.90
32428;DHT22;18882;50.952;4.366;2023-02-11T04:44:56;7.30;99.90
32428;DHT22;18882;50.952;4.366;2023-02-11T04:47:21;7.40;99.90
32428;DHT22;18882;50.952;4.366;2023-02-11T04:49:47;7.40;99.90
32428;DHT22;18882;50.952;4.366;2023-02-11T04:52:13;7.40;99.90
32428;DHT22;18882;50.952;4.366;2023-02-11T04:54:38;7.30;99.90
32428;DHT22;18882;50.952;4.366;2023-02-11T04:57:04;7.40;99.90
32428;DHT22;18882;50.952;4.366;2023-02-11T04:59:30;7.30;99.90
32428;DHT22;18882;50.952;4.366;2023-02-11T05:01:55;7.20;99.90
32428;DHT22;18882;50.952;4.366;2023-02-11T05:04:21;7.30;99.90
32428;DHT22;18882;50.952;4.366;2023-02-11T05:06:47;7.30;99.90
32428;DHT22;18882;50.952;4.366;2023-02-11T05:09:13;7.30;99.90
32428;DHT22;18882;50.952;4.366;2023-02-11T05:11:38;7.10;99.90
32428;DHT22;18882;50.952;4.366;2023-02-11T05:14:05;7.20;99.90
32428;DHT22;18882;50.952;4.366;2023-02-11T05:16:31;7.10;99.90
32428;DHT22;18882;50.952;4.366;2023-02-11T05:18:57;7.20;99.90
32428;DHT22;18882;50.952;4.366;2023-02-11T05:21:23;7.20;99.90
32428;DHT22;18882;50.952;4.366;2023-02-11T05:23:49;7.20;99.90
32428;DHT22;18882;50.952;4.366;2023-02-11T05:26:15;7.20;99.90
32428;DHT22;18882;50.952;4.366;2023-02-11T05:28:41;7.20;99.90
32428;DHT22;18882;50.952;4.366;2023-02-11T05:31:07;7.20;99.90
32428;DHT22;18882;50.952;4.366;2023-02-11T05:33:34;7.10;99.90
32428;DHT22;18882;50.952;4.366;2023-02-11T05:36:04;7.20;99.90
32428;DHT22;18882;50.952;4.366;2023-02-11T05:38:30;7.20;99.90
32428;DHT22;18882;50.952;4.366;2023-02-11T05:40:56;7.20;99.90
32428;DHT22;18882;50.952;4.366;2023-02-11T05:43:22;7.20;99.90
32428;DHT22;18882;50.952;4.366;2023-02-11T05:45:47;7.20;99.90
32428;DHT22;18882;50.952;4.366;2023-02-11T05:48:13;7.20;99.90
32428;DHT22;18882;50.952;4.366;2023-02-11T05:50:39;7.20;99.90
32428;DHT22;18882;50.952;4.366;2023-02-11T05:53:05;7.20;99.90
32428;DHT22;18882;50.952;4.366;2023-02-11T05:55:31;7.10;99.90
32428;DHT22;18882;50.952;4.366;2023-02-11T05:57:57;7.10;99.90
32428;DHT22;18882;50.952;4.366;2023-02-11T06:00:23;7.20;99.90
32428;DHT22;18882;50.952;4.366;2023-02-11T06:02:48;7.10;99.90
32428;DHT22;18882;50.952;4.366;2023-02-11T06:05:14;7.20;99.90
32428;DHT22;18882;50.952;4.366;2023-02-11T06:07:40;7.20;99.90
32428;DHT22;18882;50.952;4.366;2023-02-11T06:10:06;7.30;99.90
32428;DHT22;18882;50.952;4.366;2023-02-11T06:12:32;7.30;99.90
32428;DHT22;18882;50.952;4.366;2023-02-11T06:14:57;7.30;99.90
32428;DHT22;18882;50.952;4.366;2023-02-11T06:17:23;7.30;99.90
32428;DHT22;18882;50.952;4.366;2023-02-11T06:19:49;7.40;99.90
32428;DHT22;18882;50.952;4.366;2023-02-11T06:22:16;7.40;99.90
32428;DHT22;18882;50.952;4.366;2023-02-11T06:24:42;7.40;99.90
32428;DHT22;18882;50.952;4.366;2023-02-11T06:27:08;7.40;99.90
32428;DHT22;18882;50.952;4.366;2023-02-11T06:29:33;7.20;99.90
32428;DHT22;18882;50.952;4.366;2023-02-11T06:31:59;7.20;99.90
32428;DHT22;18882;50.952;4.366;2023-02-11T06:34:24;7.20;99.90
32428;DHT22;18882;50.952;4.366;2023-02-11T06:36:50;7.10;99.90
32428;DHT22;18882;50.952;4.366;2023-02-11T06:39:16;7.20;99.90
32428;DHT22;18882;50.952;4.366;2023-02-11T06:41:41;7.30;99.90
32428;DHT22;18882;50.952;4.366;2023-02-11T06:44:07;7.40;99.90
32428;DHT22;18882;50.952;4.366;2023-02-11T06:46:32;7.50;99.90
32428;DHT22;18882;50.952;4.366;2023-02-11T06:48:58;7.40;99.90
32428;DHT22;18882;50.952;4.366;2023-02-11T06:51:24;7.50;99.90
32428;DHT22;18882;50.952;4.366;2023-02-11T06:53:49;7.50;99.90
32428;DHT22;18882;50.952;4.366;2023-02-11T06:56:18;7.40;99.90
32428;DHT22;18882;50.952;4.366;2023-02-11T06:58:45;7.40;99.90
32428;DHT22;18882;50.952;4.366;2023-02-11T07:01:13;7.40;99.90
32428;DHT22;18882;50.952;4.366;2023-02-11T07:03:41;7.40;99.90
32428;DHT22;18882;50.952;4.366;2023-02-11T07:06:14;7.50;99.90
32428;DHT22;18882;50.952;4.366;2023-02-11T07:08:40;7.50;99.90
32428;DHT22;18882;50.952;4.366;2023-02-11T07:11:11;7.60;99.90
32428;DHT22;18882;50.952;4.366;2023-02-11T07:13:37;7.50;99.90
32428;DHT22;18882;50.952;4.366;2023-02-11T07:16:05;7.40;99.90
32428;DHT22;18882;50.952;4.366;2023-02-11T07:18:31;7.40;99.90
32428;DHT22;18882;50.952;4.366;2023-02-11T07:20:57;7.40;99.90
32428;DHT22;18882;50.952;4.366;2023-02-11T07:23:22;7.40;99.90
32428;DHT22;18882;50.952;4.366;2023-02-11T07:25:48;7.40;99.90
32428;DHT22;18882;50.952;4.366;2023-02-11T07:28:14;7.50;99.90
32428;DHT22;18882;50.952;4.366;2023-02-11T07:30:39;7.60;99.90
32428;DHT22;18882;50.952;4.366;2023-02-11T07:33:06;7.60;99.90
32428;DHT22;18882;50.952;4.366;2023-02-11T07:35:32;7.60;99.90
32428;DHT22;18882;50.952;4.366;2023-02-11T07:37:58;7.70;99.90
32428;DHT22;18882;50.952;4.366;2023-02-11T07:40:27;7.70;99.90
32428;DHT22;18882;50.952;4.366;2023-02-11T07:42:56;7.60;99.90
32428;DHT22;18882;50.952;4.366;2023-02-11T07:45:21;7.70;99.90
32428;DHT22;18882;50.952;4.366;2023-02-11T07:47:47;7.80;99.90
32428;DHT22;18882;50.952;4.366;2023-02-11T07:50:13;7.90;99.90
32428;DHT22;18882;50.952;4.366;2023-02-11T07:52:38;7.90;99.90
32428;DHT22;18882;50.952;4.366;2023-02-11T07:55:04;8.00;99.90
32428;DHT22;18882;50.952;4.366;2023-02-11T07:57:30;7.90;99.90
32428;DHT22;18882;50.952;4.366;2023-02-11T07:59:56;8.00;99.90
32428;DHT22;18882;50.952;4.366;2023-02-11T08:02:21;8.00;99.90
32428;DHT22;18882;50.952;4.366;2023-02-11T08:04:47;8.00;99.90
32428;DHT22;18882;50.952;4.366;2023-02-11T08:07:15;8.00;99.90
32428;DHT22;18882;50.952;4.366;2023-02-11T08:09:41;8.00;99.90
32428;DHT22;18882;50.952;4.366;2023-02-11T08:12:06;8.00;99.90
32428;DHT22;18882;50.952;4.366;2023-02-11T08:14:32;8.10;99.90
32428;DHT22;18882;50.952;4.366;2023-02-11T08:16:57;8.10;99.90
32428;DHT22;18882;50.952;4.366;2023-02-11T08:19:23;8.00;99.90
32428;DHT22;18882;50.952;4.366;2023-02-11T08:21:49;8.00;99.90
32428;DHT22;18882;50.952;4.366;2023-02-11T08:24:15;8.10;99.90
32428;DHT22;18882;50.952;4.366;2023-02-11T08:26:41;8.10;99.90
32428;DHT22;18882;50.952;4.366;2023-02-11T08:29:10;8.10;99.90
32428;DHT22;18882;50.952;4.366;2023-02-11T08:31:39;8.20;99.90
32428;DHT22;18882;50.952;4.366;2023-02-11T08:34:05;8.30;99.90
32428;DHT22;18882;50.952;4.366;2023-02-11T08:36:33;8.30;99.90
32428;DHT22;18882;50.952;4.366;2023-02-11T08:39:02;8.30;99.90
32428;DHT22;18882;50.952;4.366;2023-02-11T08:41:34;8.30;99.90
32428;DHT22;18882;50.952;4.366;2023-02-11T08:44:00;8.20;99.90
32428;DHT22;18882;50.952;4.366;2023-02-11T08:46:26;8.30;99.90
32428;DHT22;18882;50.952;4.366;2023-02-11T08:48:52;8.30;99.90
32428;DHT22;18882;50.952;4.366;2023-02-11T08:51:20;8.40;99.90
32428;DHT22;18882;50.952;4.366;2023-02-11T08:53:46;8.30;99.90
32428;DHT22;18882;50.952;4.366;2023-02-11T08:56:13;8.10;99.90
32428;DHT22;18882;50.952;4.366;2023-02-11T08:58:40;8.20;99.90
32428;DHT22;18882;50.952;4.366;2023-02-11T09:01:14;8.30;99.90
32428;DHT22;18882;50.952;4.366;2023-02-11T09:03:40;8.30;99.90
32428;DHT22;18882;50.952;4.366;2023-02-11T09:06:08;8.30;99.90
32428;DHT22;18882;50.952;4.366;2023-02-11T09:08:36;8.30;99.90
32428;DHT22;18882;50.952;4.366;2023-02-11T09:11:03;8.30;99.90
32428;DHT22;18882;50.952;4.366;2023-02-11T09:13:30;8.40;99.90
32428;DHT22;18882;50.952;4.366;2023-02-11T09:15:57;8.50;99.90
32428;DHT22;18882;50.952;4.366;2023-02-11T09:18:23;8.50;99.90
32428;DHT22;18882;50.952;4.366;2023-02-11T09:20:48;8.30;99.90
32428;DHT22;18882;50.952;4.366;2023-02-11T09:23:14;8.40;99.90
32428;DHT22;18882;50.952;4.366;2023-02-11T09:25:40;8.40;99.90
32428;DHT22;18882;50.952;4.366;2023-02-11T09:28:06;8.50;99.90
32428;DHT22;18882;50.952;4.366;2023-02-11T09:30:32;8.50;99.90
32428;DHT22;18882;50.952;4.366;2023-02-11T09:32:58;8.50;99.90
32428;DHT22;18882;50.952;4.366;2023-02-11T09:35:24;8.40;99.90
32428;DHT22;18882;50.952;4.366;2023-02-11T09:37:49;8.40;99.90
32428;DHT22;18882;50.952;4.366;2023-02-11T09:40:16;8.40;99.90
32428;DHT22;18882;50.952;4.366;2023-02-11T09:43:34;8.50;99.90
32428;DHT22;18882;50.952;4.366;2023-02-11T09:45:40;8.70;99.90
32428;DHT22;18882;50.952;4.366;2023-02-11T09:48:17;8.80;99.90
32428;DHT22;18882;50.952;4.366;2023-02-11T09:50:54;8.90;99.90
32428;DHT22;18882;50.952;4.366;2023-02-11T09:53:28;9.00;99.90
32428;DHT22;18882;50.952;4.366;2023-02-11T09:55:58;9.10;99.90
32428;DHT22;18882;50.952;4.366;2023-02-11T09:58:39;9.10;99.90
32428;DHT22;18882;50.952;4.366;2023-02-11T10:01:29;9.10;99.90
32428;DHT22;18882;50.952;4.366;2023-02-11T10:06:40;9.00;99.90
32428;DHT22;18882;50.952;4.366;2023-02-11T10:20:22;9.40;99.90
32428;DHT22;18882;50.952;4.366;2023-02-11T10:22:53;9.40;99.90
32428;DHT22;18882;50.952;4.366;2023-02-11T10:27:56;9.50;99.90
32428;DHT22;18882;50.952;4.366;2023-02-11T10:30:32;9.50;99.90
32428;DHT22;18882;50.952;4.366;2023-02-11T10:35:45;9.30;99.90
32428;DHT22;18882;50.952;4.366;2023-02-11T10:38:11;9.30;99.90
32428;DHT22;18882;50.952;4.366;2023-02-11T10:40:37;9.40;99.90
32428;DHT22;18882;50.952;4.366;2023-02-11T10:43:07;9.30;99.90
32428;DHT22;18882;50.952;4.366;2023-02-11T10:45:43;9.20;99.90
32428;DHT22;18882;50.952;4.366;2023-02-11T10:48:35;9.30;99.90
32428;DHT22;18882;50.952;4.366;2023-02-11T10:51:21;9.10;99.90
32428;DHT22;18882;50.952;4.366;2023-02-11T10:54:08;9.10;99.90
32428;DHT22;18882;50.952;4.366;2023-02-11T10:56:46;9.20;99.90
32428;DHT22;18882;50.952;4.366;2023-02-11T10:59:29;9.40;99.90
32428;DHT22;18882;50.952;4.366;2023-02-11T11:01:59;9.50;99.90
32428;DHT22;18882;50.952;4.366;2023-02-11T11:06:55;9.50;99.90
32428;DHT22;18882;50.952;4.366;2023-02-11T11:09:29;9.40;99.90
32428;DHT22;18882;50.952;4.366;2023-02-11T11:11:55;9.40;99.90
32428;DHT22;18882;50.952;4.366;2023-02-11T11:14:23;9.40;99.90
32428;DHT22;18882;50.952;4.366;2023-02-11T11:16:54;9.40;99.90
32428;DHT22;18882;50.952;4.366;2023-02-11T11:19:22;9.50;99.90
32428;DHT22;18882;50.952;4.366;2023-02-11T11:21:52;9.50;99.90
32428;DHT22;18882;50.952;4.366;2023-02-11T11:27:25;9.70;99.90
32428;DHT22;18882;50.952;4.366;2023-02-11T11:29:56;9.80;99.90
32428;DHT22;18882;50.952;4.366;2023-02-11T11:32:29;9.70;99.90
32428;DHT22;18882;50.952;4.366;2023-02-11T11:35:02;9.60;99.90
32428;DHT22;18882;50.952;4.366;2023-02-11T11:37:37;9.70;99.90
32428;DHT22;18882;50.952;4.366;2023-02-11T11:40:25;9.80;99.90
32428;DHT22;18882;50.952;4.366;2023-02-11T11:45:37;9.90;99.90
32428;DHT22;18882;50.952;4.366;2023-02-11T11:51:08;9.80;99.90
32428;DHT22;18882;50.952;4.366;2023-02-11T11:53:47;9.90;99.90
32428;DHT22;18882;50.952;4.366;2023-02-11T11:56:25;9.90;99.90
32428;DHT22;18882;50.952;4.366;2023-02-11T11:58:52;10.00;99.90
32428;DHT22;18882;50.952;4.366;2023-02-11T12:12:24;10.10;99.90
32428;DHT22;18882;50.952;4.366;2023-02-11T12:23:55;10.00;99.90
32428;DHT22;18882;50.952;4.366;2023-02-11T12:32:05;10.10;99.90
32428;DHT22;18882;50.952;4.366;2023-02-11T12:37:39;10.10;99.90
32428;DHT22;18882;50.952;4.366;2023-02-11T12:40:44;10.00;99.90
32428;DHT22;18882;50.952;4.366;2023-02-11T12:43:24;10.10;99.90
32428;DHT22;18882;50.952;4.366;2023-02-11T12:59:43;10.10;99.90
32428;DHT22;18882;50.952;4.366;2023-02-11T13:04:51;10.20;99.90
32428;DHT22;18882;50.952;4.366;2023-02-11T13:07:42;10.40;99.90
32428;DHT22;18882;50.952;4.366;2023-02-11T13:10:26;10.50;99.90
32428;DHT22;18882;50.952;4.366;2023-02-11T13:12:54;10.50;99.90
32428;DHT22;18882;50.952;4.366;2023-02-11T13:15:41;10.60;99.90
32428;DHT22;18882;50.952;4.366;2023-02-11T13:23:42;10.70;99.90
32428;DHT22;18882;50.952;4.366;2023-02-11T13:31:18;10.90;99.90
32428;DHT22;18882;50.952;4.366;2023-02-11T13:33:45;10.90;99.90
32428;DHT22;18882;50.952;4.366;2023-02-11T13:36:20;10.90;99.90
32428;DHT22;18882;50.952;4.366;2023-02-11T13:38:55;10.90;99.90
32428;DHT22;18882;50.952;4.366;2023-02-11T13:49:38;10.90;99.90
32428;DHT22;18882;50.952;4.366;2023-02-11T13:52:24;10.90;99.90
32428;DHT22;18882;50.952;4.366;2023-02-11T13:54:52;11.00;99.90
32428;DHT22;18882;50.952;4.366;2023-02-11T13:59:49;10.90;99.90
32428;DHT22;18882;50.952;4.366;2023-02-11T14:02:34;10.90;99.90
32428;DHT22;18882;50.952;4.366;2023-02-11T14:05:31;11.00;99.90
32428;DHT22;18882;50.952;4.366;2023-02-11T14:08:18;10.90;99.90
32428;DHT22;18882;50.952;4.366;2023-02-11T14:11:07;11.00;99.90
32428;DHT22;18882;50.952;4.366;2023-02-11T14:14:11;11.00;99.90
32428;DHT22;18882;50.952;4.366;2023-02-11T14:19:38;10.80;99.90
32428;DHT22;18882;50.952;4.366;2023-02-11T14:22:15;10.80;99.90
32428;DHT22;18882;50.952;4.366;2023-02-11T14:24:59;10.80;99.90
32428;DHT22;18882;50.952;4.366;2023-02-11T14:27:43;10.80;99.90
32428;DHT22;18882;50.952;4.366;2023-02-11T14:33:06;11.00;99.90
32428;DHT22;18882;50.952;4.366;2023-02-11T14:36:10;11.00;99.90
32428;DHT22;18882;50.952;4.366;2023-02-11T14:41:33;10.80;99.90
32428;DHT22;18882;50.952;4.366;2023-02-11T14:44:22;10.80;99.90
32428;DHT22;18882;50.952;4.366;2023-02-11T14:46:50;10.90;99.90
32428;DHT22;18882;50.952;4.366;2023-02-11T14:49:32;10.90;99.90
32428;DHT22;18882;50.952;4.366;2023-02-11T14:52:06;10.90;99.90
32428;DHT22;18882;50.952;4.366;2023-02-11T14:54:39;11.10;99.90
32428;DHT22;18882;50.952;4.366;2023-02-11T14:57:08;11.10;99.90
32428;DHT22;18882;50.952;4.366;2023-02-11T14:59:36;11.20;99.90
32428;DHT22;18882;50.952;4.366;2023-02-11T15:02:02;11.10;99.90
32428;DHT22;18882;50.952;4.366;2023-02-11T15:04:30;11.10;99.90
32428;DHT22;18882;50.952;4.366;2023-02-11T15:07:01;11.00;99.90
32428;DHT22;18882;50.952;4.366;2023-02-11T15:09:41;11.00;99.90
32428;DHT22;18882;50.952;4.366;2023-02-11T15:12:24;11.00;99.90
32428;DHT22;18882;50.952;4.366;2023-02-11T15:14:55;11.10;99.90
32428;DHT22;18882;50.952;4.366;2023-02-11T15:17:25;11.10;99.90
32428;DHT22;18882;50.952;4.366;2023-02-11T15:19:57;11.00;99.90
32428;DHT22;18882;50.952;4.366;2023-02-11T15:22:29;10.90;99.90
32428;DHT22;18882;50.952;4.366;2023-02-11T15:25:17;10.90;99.90
32428;DHT22;18882;50.952;4.366;2023-02-11T15:27:52;10.90;99.90
32428;DHT22;18882;50.952;4.366;2023-02-11T15:35:23;10.90;99.90
32428;DHT22;18882;50.952;4.366;2023-02-11T15:37:49;10.90;99.90
32428;DHT22;18882;50.952;4.366;2023-02-11T15:40:18;10.90;99.90
32428;DHT22;18882;50.952;4.366;2023-02-11T15:43:01;10.90;99.90
32428;DHT22;18882;50.952;4.366;2023-02-11T15:45:34;10.80;99.90
32428;DHT22;18882;50.952;4.366;2023-02-11T15:48:07;10.90;99.90
32428;DHT22;18882;50.952;4.366;2023-02-11T15:50:35;10.90;99.90
32428;DHT22;18882;50.952;4.366;2023-02-11T15:53:19;10.90;99.90
32428;DHT22;18882;50.952;4.366;2023-02-11T15:55:48;10.90;99.90
32428;DHT22;18882;50.952;4.366;2023-02-11T15:58:14;10.90;99.90
32428;DHT22;18882;50.952;4.366;2023-02-11T16:00:48;10.80;99.90
32428;DHT22;18882;50.952;4.366;2023-02-11T16:03:23;10.80;99.90
32428;DHT22;18882;50.952;4.366;2023-02-11T16:05:50;10.80;99.90
32428;DHT22;18882;50.952;4.366;2023-02-11T16:10:57;10.80;99.90
32428;DHT22;18882;50.952;4.366;2023-02-11T16:13:25;10.90;99.90
32428;DHT22;18882;50.952;4.366;2023-02-11T16:16:18;10.80;99.90
32428;DHT22;18882;50.952;4.366;2023-02-11T16:18:54;10.80;99.90
32428;DHT22;18882;50.952;4.366;2023-02-11T16:21:34;10.70;99.90
32428;DHT22;18882;50.952;4.366;2023-02-11T16:24:05;10.70;99.90
32428;DHT22;18882;50.952;4.366;2023-02-11T16:26:37;10.70;99.90
32428;DHT22;18882;50.952;4.366;2023-02-11T16:29:13;10.70;99.90
32428;DHT22;18882;50.952;4.366;2023-02-11T16:31:42;10.70;99.90
32428;DHT22;18882;50.952;4.366;2023-02-11T16:34:16;10.60;99.90
32428;DHT22;18882;50.952;4.366;2023-02-11T16:36:43;10.60;99.90
32428;DHT22;18882;50.952;4.366;2023-02-11T16:39:09;10.60;99.90
32428;DHT22;18882;50.952;4.366;2023-02-11T16:41:35;10.60;99.90
32428;DHT22;18882;50.952;4.366;2023-02-11T16:44:01;10.50;99.90
32428;DHT22;18882;50.952;4.366;2023-02-11T16:46:26;10.60;99.90
32428;DHT22;18882;50.952;4.366;2023-02-11T16:48:54;10.60;99.90
32428;DHT22;18882;50.952;4.366;2023-02-11T16:51:20;10.60;99.90
32428;DHT22;18882;50.952;4.366;2023-02-11T16:53:46;10.60;99.90
32428;DHT22;18882;50.952;4.366;2023-02-11T16:56:15;10.60;99.90
32428;DHT22;18882;50.952;4.366;2023-02-11T16:58:42;10.60;99.90
32428;DHT22;18882;50.952;4.366;2023-02-11T17:01:08;10.60;99.90
32428;DHT22;18882;50.952;4.366;2023-02-11T17:03:36;10.60;99.90
32428;DHT22;18882;50.952;4.366;2023-02-11T17:06:07;10.60;99.90
32428;DHT22;18882;50.952;4.366;2023-02-11T17:08:34;10.60;99.90
32428;DHT22;18882;50.952;4.366;2023-02-11T17:11:00;10.40;99.90
32428;DHT22;18882;50.952;4.366;2023-02-11T17:13:26;10.40;99.90
32428;DHT22;18882;50.952;4.366;2023-02-11T17:15:52;10.40;99.90
32428;DHT22;18882;50.952;4.366;2023-02-11T17:18:17;10.40;99.90
32428;DHT22;18882;50.952;4.366;2023-02-11T17:20:43;10.40;99.90
32428;DHT22;18882;50.952;4.366;2023-02-11T17:23:09;10.40;99.90
32428;DHT22;18882;50.952;4.366;2023-02-11T17:25:34;10.40;99.90
32428;DHT22;18882;50.952;4.366;2023-02-11T17:28:04;10.30;99.90
32428;DHT22;18882;50.952;4.366;2023-02-11T17:30:30;10.30;99.90
32428;DHT22;18882;50.952;4.366;2023-02-11T17:32:55;10.30;99.90
32428;DHT22;18882;50.952;4.366;2023-02-11T17:35:21;10.20;99.90
32428;DHT22;18882;50.952;4.366;2023-02-11T17:37:46;10.20;99.90
32428;DHT22;18882;50.952;4.366;2023-02-11T17:40:13;10.30;99.90
32428;DHT22;18882;50.952;4.366;2023-02-11T17:42:38;10.30;99.90
32428;DHT22;18882;50.952;4.366;2023-02-11T17:45:05;10.20;99.90
32428;DHT22;18882;50.952;4.366;2023-02-11T17:47:30;10.10;99.90
32428;DHT22;18882;50.952;4.366;2023-02-11T17:49:56;10.10;99.90
32428;DHT22;18882;50.952;4.366;2023-02-11T17:52:23;10.10;99.90
32428;DHT22;18882;50.952;4.366;2023-02-11T17:54:51;10.00;99.90
32428;DHT22;18882;50.952;4.366;2023-02-11T17:57:16;10.00;99.90
32428;DHT22;18882;50.952;4.366;2023-02-11T17:59:43;10.10;99.90
32428;DHT22;18882;50.952;4.366;2023-02-11T18:02:12;10.10;99.90
32428;DHT22;18882;50.952;4.366;2023-02-11T18:04:38;10.10;99.90
32428;DHT22;18882;50.952;4.366;2023-02-11T18:07:05;10.10;99.90
32428;DHT22;18882;50.952;4.366;2023-02-11T18:09:35;10.10;99.90
32428;DHT22;18882;50.952;4.366;2023-02-11T18:12:01;10.10;99.90
32428;DHT22;18882;50.952;4.366;2023-02-11T18:14:27;10.00;99.90
32428;DHT22;18882;50.952;4.366;2023-02-11T18:16:52;10.10;99.90
32428;DHT22;18882;50.952;4.366;2023-02-11T18:19:19;10.00;99.90
32428;DHT22;18882;50.952;4.366;2023-02-11T18:21:45;10.00;99.90